Time;durP1;ratioP1;P1;durP2;ratioP2;P2;SDS_P1;SDS_P2;PMS_P1;PMS_P2;Temp;Humidity;BMP_temperature;BMP_pressure;BME280_temperature;BME280_humidity;BME280_pressure;Samples;Min_cycle;Max_cycle;Signal;HPM_P1;HPM_P2
2022/07/28 00:00:33;;;;;;;2.10;0.98;;;;;;;15.61;57.57;101195.44;4969315;28;20432;-68
2022/07/28 00:02:59;;;;;;;5.07;0.95;;;;;;;15.70;58.07;101199.78;4971681;28;20067;-67
2022/07/28 00:05:25;;;;;;;3.35;1.35;;;;;;;15.69;58.37;101197.28;4988993;28;20018;-67
2022/07/28 00:07:50;;;;;;;5.28;1.30;;;;;;;15.76;57.85;101193.81;4995985;28;20285;-67
2022/07/28 00:10:16;;;;;;;6.63;1.08;;;;;;;15.75;58.15;101194.81;4980264;28;20487;-66
2022/07/28 00:12:42;;;;;;;2.38;1.20;;;;;;;15.68;57.92;101188.47;4981665;28;20394;-68
2022/07/28 00:15:07;;;;;;;2.47;1.15;;;;;;;15.80;58.17;101199.69;4934814;28;20045;-65
2022/07/28 00:17:33;;;;;;;2.20;0.98;;;;;;;15.89;58.24;101185.41;4982039;28;20125;-68
2022/07/28 00:19:58;;;;;;;1.55;1.10;;;;;;;15.77;58.21;101192.81;4935251;28;20888;-68
2022/07/28 00:22:24;;;;;;;2.78;1.10;;;;;;;15.76;58.28;101184.97;4965800;28;20387;-67
2022/07/28 00:24:49;;;;;;;2.15;1.10;;;;;;;15.73;58.07;101175.44;4934662;28;20336;-67
2022/07/28 00:27:16;;;;;;;4.63;1.05;;;;;;;15.73;57.83;101175.44;4965563;28;20411;-67
2022/07/28 00:29:42;;;;;;;3.63;1.05;;;;;;;15.75;58.13;101180.63;4984475;28;20032;-67
2022/07/28 00:32:07;;;;;;;1.67;1.00;;;;;;;15.80;58.11;101178.34;4950655;28;20010;-66
2022/07/28 00:34:32;;;;;;;1.83;1.00;;;;;;;15.74;58.09;101176.31;4972775;28;20499;-67
2022/07/28 00:36:58;;;;;;;1.30;1.02;;;;;;;15.82;58.06;101172.84;4935008;28;20006;-65
2022/07/28 00:39:23;;;;;;;3.25;0.98;;;;;;;15.84;57.78;101176.22;4964532;28;20215;-68
2022/07/28 00:41:49;;;;;;;1.25;0.95;;;;;;;15.95;57.54;101175.94;4935694;28;20014;-66
2022/07/28 00:44:14;;;;;;;2.75;1.00;;;;;;;15.88;57.70;101166.91;4987016;28;20109;-67
2022/07/28 00:46:40;;;;;;;3.53;1.10;;;;;;;15.88;57.85;101166.91;4955641;28;20428;-66
2022/07/28 00:49:05;;;;;;;2.75;1.30;;;;;;;15.77;57.97;101155.47;4987876;28;20162;-67
2022/07/28 00:51:31;;;;;;;2.60;0.90;;;;;;;15.83;57.81;101166.53;4986182;28;20284;-66
2022/07/28 00:53:56;;;;;;;3.03;1.05;;;;;;;15.90;57.47;101162.22;4985255;28;20692;-67
2022/07/28 00:56:22;;;;;;;1.38;0.85;;;;;;;15.88;57.66;101156.22;4969585;28;20247;-66
2022/07/28 00:58:47;;;;;;;3.33;0.88;;;;;;;15.88;57.93;101161.56;4986394;28;20422;-67
2022/07/28 01:01:18;;;;;;;3.42;1.33;;;;;;;15.86;58.00;101155.53;4979300;28;20869;-67
2022/07/28 01:03:51;;;;;;;2.58;0.90;;;;;;;15.85;57.71;101156.50;4972579;28;20422;-68
2022/07/28 01:06:22;;;;;;;3.63;1.10;;;;;;;15.90;57.45;101165.72;4956181;28;20029;-65
2022/07/28 01:09:25;;;;;;;1.77;1.10;;;;;;;15.85;57.96;101162.72;5000309;28;20511;-67
2022/07/28 01:12:03;;;;;;;1.20;0.82;;;;;;;15.75;57.98;101162.81;4994039;28;20548;-67
2022/07/28 01:14:31;;;;;;;2.47;1.17;;;;;;;15.73;58.07;101154.09;4972895;28;20014;-67
2022/07/28 01:17:06;;;;;;;2.78;1.25;;;;;;;15.78;58.20;101156.31;4962368;28;20284;-67
2022/07/28 01:20:04;;;;;;;1.42;0.90;;;;;;;15.78;57.91;101151.81;4948842;28;20132;-67
2022/07/28 01:22:32;;;;;;;3.22;0.88;;;;;;;15.78;58.20;101156.31;4954772;28;20025;-66
2022/07/28 01:25:16;;;;;;;1.38;0.90;;;;;;;15.75;58.25;101154.81;4953793;28;20017;-67
2022/07/28 01:27:48;;;;;;;0.90;0.80;;;;;;;15.56;58.77;101155.88;4970899;28;20318;-68
2022/07/28 01:30:32;;;;;;;1.48;0.82;;;;;;;15.56;58.86;101147.88;4982738;28;20518;-68
2022/07/28 01:33:03;;;;;;;4.80;0.75;;;;;;;15.66;58.71;101149.59;4972200;28;20025;-66
2022/07/28 01:35:31;;;;;;;0.88;0.88;;;;;;;15.59;58.90;101142.22;4974621;28;20075;-67
2022/07/28 01:37:58;;;;;;;3.03;1.00;;;;;;;15.65;58.84;101145.25;4981661;28;20931;-66
2022/07/28 01:40:25;;;;;;;3.22;0.90;;;;;;;15.59;58.41;101144.88;4967544;28;20049;-65
2022/07/28 01:42:53;;;;;;;3.30;1.00;;;;;;;15.61;58.49;101147.41;4967135;28;20506;-68
2022/07/28 01:45:18;;;;;;;3.22;1.10;;;;;;;15.54;58.70;101143.69;4975958;28;20542;-68
2022/07/28 01:47:44;;;;;;;2.78;1.10;;;;;;;15.55;58.63;101153.38;4998147;28;19998;-67
2022/07/28 01:50:10;;;;;;;1.67;0.90;;;;;;;15.42;59.08;101146.63;4993314;28;20520;-67
2022/07/28 01:52:36;;;;;;;1.70;0.80;;;;;;;15.51;58.89;101150.19;4949658;28;20871;-67
2022/07/28 01:55:02;;;;;;;1.75;0.85;;;;;;;15.46;59.17;101139.97;4963074;28;20029;-67
2022/07/28 01:57:31;;;;;;;2.03;1.00;;;;;;;15.44;59.08;101142.00;4952925;28;20387;-67
2022/07/28 01:59:58;;;;;;;2.05;1.10;;;;;;;15.44;59.25;101130.47;4965452;28;20371;-67
2022/07/28 02:02:23;;;;;;;3.72;1.27;;;;;;;15.35;59.40;101140.25;4951204;28;20121;-66
2022/07/28 02:04:49;;;;;;;2.05;1.00;;;;;;;15.43;59.40;101129.63;4967859;28;20010;-67
2022/07/28 02:07:14;;;;;;;3.50;1.10;;;;;;;15.55;59.14;101132.03;4953156;28;20581;-66
2022/07/28 02:09:40;;;;;;;3.28;1.23;;;;;;;15.53;59.36;101128.69;4947463;28;20014;-67
2022/07/28 02:12:06;;;;;;;2.65;0.90;;;;;;;15.53;59.42;101128.69;4968130;28;20285;-65
2022/07/28 02:14:31;;;;;;;1.17;1.00;;;;;;;15.54;59.22;101123.19;4949108;28;20427;-67
2022/07/28 02:17:06;;;;;;;2.03;1.15;;;;;;;15.50;59.37;101115.66;4978733;28;20060;-68
2022/07/28 02:19:32;;;;;;;1.40;1.00;;;;;;;15.39;59.58;101109.63;4987955;28;20026;-68
2022/07/28 02:21:57;;;;;;;1.63;0.90;;;;;;;15.41;59.30;101115.63;4967800;28;20900;-67
2022/07/28 02:24:25;;;;;;;5.03;1.40;;;;;;;15.48;59.50;101109.66;4988191;28;20875;-67
2022/07/28 02:26:57;;;;;;;3.40;1.10;;;;;;;15.36;59.44;101099.28;4973017;28;20746;-67
2022/07/28 02:29:26;;;;;;;2.53;1.00;;;;;;;15.37;59.67;101108.94;4969965;28;20045;-67
2022/07/28 02:31:54;;;;;;;1.67;1.02;;;;;;;15.41;59.54;101102.31;4970731;28;20025;-68
2022/07/28 02:34:21;;;;;;;1.38;1.00;;;;;;;15.43;59.77;101108.31;4970589;28;20486;-67
2022/07/28 02:36:52;;;;;;;3.80;1.35;;;;;;;15.38;60.10;101102.59;4979636;28;20093;-67
2022/07/28 02:39:21;;;;;;;2.53;1.20;;;;;;;15.41;60.11;101107.66;4997367;28;20057;-67
2022/07/28 02:41:47;;;;;;;2.28;0.85;;;;;;;15.36;60.05;101098.44;4987861;28;20005;-67
2022/07/28 02:44:14;;;;;;;1.48;0.90;;;;;;;15.20;60.09;101081.38;5007787;28;20036;-68
2022/07/28 02:46:45;;;;;;;5.15;1.10;;;;;;;15.28;60.44;101086.75;4994705;28;20017;-66
2022/07/28 02:49:43;;;;;;;1.80;1.10;;;;;;;15.29;60.38;101096.41;4971754;28;20250;-67
2022/07/28 02:52:09;;;;;;;2.50;1.25;;;;;;;15.33;60.15;101094.25;4927062;28;20230;-67
2022/07/28 02:54:34;;;;;;;3.47;1.10;;;;;;;15.32;60.46;101095.25;4990751;28;20355;-67
2022/07/28 02:56:59;;;;;;;3.47;1.17;;;;;;;15.25;60.74;101091.56;4988526;28;20243;-67
2022/07/28 02:59:25;;;;;;;2.78;1.17;;;;;;;15.31;60.96;101090.91;4967533;28;20083;-67
2022/07/28 03:01:51;;;;;;;1.95;1.10;;;;;;;15.30;60.56;101091.94;4966159;28;20030;-67
2022/07/28 03:04:55;;;;;;;1.20;1.10;;;;;;;15.16;60.77;101085.34;4954287;28;20740;-68
2022/07/28 03:07:02;;;;;;;0.90;0.90;;;;;;;15.22;60.72;101083.88;4960424;28;20044;-66
2022/07/28 03:09:28;;;;;;;4.75;1.30;;;;;;;15.17;60.56;101084.34;4994930;28;20014;-67
2022/07/28 03:11:53;;;;;;;3.53;1.15;;;;;;;15.05;60.83;101089.13;4954126;28;20037;-65
2022/07/28 03:14:19;;;;;;;1.65;0.98;;;;;;;15.06;61.23;101085.47;4988328;28;20010;-67
2022/07/28 03:16:44;;;;;;;1.95;1.02;;;;;;;15.05;61.25;101091.78;4979714;28;20380;-66
2022/07/28 03:19:10;;;;;;;1.63;0.90;;;;;;;14.97;61.18;101090.91;4974627;28;20883;-67
2022/07/28 03:21:36;;;;;;;1.55;1.20;;;;;;;14.99;61.47;101095.09;4962697;28;20010;-67
2022/07/28 03:24:01;;;;;;;2.17;1.13;;;;;;;14.90;61.75;101088.84;4985370;28;20014;-68
2022/07/28 03:26:31;;;;;;;1.88;1.13;;;;;;;14.84;61.94;101092.16;4953059;28;20061;-67
2022/07/28 03:28:57;;;;;;;2.45;1.20;;;;;;;14.86;62.29;101091.97;4958455;28;20422;-67
2022/07/28 03:31:22;;;;;;;2.95;1.30;;;;;;;14.85;61.64;101090.31;4959233;28;20519;-67
2022/07/28 03:33:48;;;;;;;2.85;1.05;;;;;;;14.80;61.90;101104.09;4970324;28;20885;-67
2022/07/28 03:36:15;;;;;;;2.35;1.17;;;;;;;14.74;62.38;101110.88;4934134;28;20024;-67
2022/07/28 03:38:47;;;;;;;3.95;1.38;;;;;;;14.72;62.22;101104.91;4956106;28;20010;-67
2022/07/28 03:41:12;;;;;;;2.50;1.10;;;;;;;14.82;62.18;101110.13;4953061;28;20018;-67
2022/07/28 03:43:38;;;;;;;2.10;1.02;;;;;;;14.73;62.25;101119.88;4981685;28;20045;-67
2022/07/28 03:46:03;;;;;;;6.90;1.20;;;;;;;14.83;62.19;101114.44;4950440;28;20091;-67
2022/07/28 03:48:30;;;;;;;1.55;1.15;;;;;;;14.82;62.21;101123.44;4986015;28;20336;-67
2022/07/28 03:50:55;;;;;;;2.13;1.10;;;;;;;14.68;62.84;101119.50;4952910;28;20925;-67
2022/07/28 03:53:23;;;;;;;2.65;1.00;;;;;;;14.59;63.22;101115.06;4969467;28;20034;-65
2022/07/28 03:55:52;;;;;;;2.92;1.05;;;;;;;14.52;63.81;101112.16;4959900;28;20586;-67
2022/07/28 03:58:25;;;;;;;2.58;1.30;;;;;;;14.50;64.11;101114.16;4985609;28;20412;-67
2022/07/28 04:00:50;;;;;;;1.98;1.20;;;;;;;14.42;63.92;101116.75;4982831;28;20387;-68
2022/07/28 04:03:16;;;;;;;2.17;1.15;;;;;;;14.33;64.94;101123.84;4954063;28;20026;-66
2022/07/28 04:05:42;;;;;;;2.03;1.42;;;;;;;14.38;64.97;101113.56;4969929;28;20348;-67
2022/07/28 04:08:07;;;;;;;2.70;1.38;;;;;;;14.36;64.99;101120.03;4967361;28;20014;-66
2022/07/28 04:10:33;;;;;;;2.75;1.50;;;;;;;14.30;65.32;101115.31;4962110;28;20041;-67
2022/07/28 04:12:58;;;;;;;4.35;1.45;;;;;;;14.20;65.64;101118.03;4972784;28;20668;-70
2022/07/28 04:15:24;;;;;;;2.17;1.33;;;;;;;14.23;65.93;101117.75;4954316;28;20214;-67
2022/07/28 04:17:50;;;;;;;14.75;1.45;;;;;;;14.02;66.66;101113.56;4974609;28;20006;-67
2022/07/28 04:20:16;;;;;;;3.25;1.40;;;;;;;14.09;66.60;101121.78;4971436;28;20420;-66
2022/07/28 04:22:42;;;;;;;2.78;1.13;;;;;;;14.03;66.91;101117.88;4955833;28;20517;-67
2022/07/28 04:25:08;;;;;;;2.30;1.38;;;;;;;14.03;66.77;101117.03;4949359;28;20117;-67
2022/07/28 04:27:35;;;;;;;3.53;1.20;;;;;;;13.88;67.19;101111.41;4989581;28;20033;-68
2022/07/28 04:30:01;;;;;;;2.63;1.20;;;;;;;13.74;67.70;101112.75;4995476;28;20111;-67
2022/07/28 04:32:27;;;;;;;5.18;1.13;;;;;;;13.80;67.71;101106.00;4971739;28;20011;-66
2022/07/28 04:34:52;;;;;;;2.00;1.17;;;;;;;13.81;68.01;101103.19;4969332;28;20037;-67
2022/07/28 04:37:18;;;;;;;3.95;1.20;;;;;;;13.81;68.07;101107.66;4978238;28;20304;-65
2022/07/28 04:39:44;;;;;;;7.15;1.42;;;;;;;13.69;68.17;101110.53;4999636;28;20006;-68
2022/07/28 04:42:10;;;;;;;3.78;1.30;;;;;;;13.82;68.38;101111.97;4995245;28;20006;-68
2022/07/28 04:44:39;;;;;;;2.03;1.33;;;;;;;13.93;68.06;101111.78;4980660;28;20093;-67
2022/07/28 04:47:04;;;;;;;2.45;1.30;;;;;;;13.76;68.84;101113.41;4975654;28;20026;-68
2022/07/28 04:49:30;;;;;;;3.63;1.60;;;;;;;13.81;68.07;101110.34;4978336;28;20566;-68
2022/07/28 04:51:55;;;;;;;2.67;1.60;;;;;;;13.78;68.57;101113.28;4955413;28;20125;-67
2022/07/28 04:54:21;;;;;;;1.48;1.30;;;;;;;13.78;69.05;101114.13;4976559;28;20270;-67
2022/07/28 04:56:46;;;;;;;3.28;1.75;;;;;;;13.92;68.79;101115.44;4942276;28;20010;-65
2022/07/28 04:59:11;;;;;;;1.77;1.20;;;;;;;13.88;68.79;101106.09;5002510;28;20032;-67
2022/07/28 05:01:38;;;;;;;4.10;1.85;;;;;;;13.91;68.80;101103.94;4965624;28;20333;-65
2022/07/28 05:04:06;;;;;;;2.78;1.65;;;;;;;13.94;69.43;101109.97;4986143;28;20119;-68
2022/07/28 05:06:33;;;;;;;1.60;1.50;;;;;;;13.89;69.39;101105.09;4974988;28;21006;-68
2022/07/28 05:08:59;;;;;;;1.52;1.40;;;;;;;13.89;69.39;101105.94;4957222;28;20278;-68
2022/07/28 05:11:25;;;;;;;4.50;1.20;;;;;;;13.93;69.42;101109.13;4955366;28;20037;-65
2022/07/28 05:13:50;;;;;;;5.15;1.90;;;;;;;13.94;69.29;101110.78;4965847;28;20572;-67
2022/07/28 05:16:16;;;;;;;2.13;1.45;;;;;;;14.10;68.84;101110.16;4956816;28;20129;-64
2022/07/28 05:18:41;;;;;;;3.83;1.27;;;;;;;14.21;68.45;101106.41;4967411;28;20018;-68
2022/07/28 05:21:07;;;;;;;4.97;1.80;;;;;;;14.38;67.95;101108.25;4948051;28;19999;-69
2022/07/28 05:23:32;;;;;;;3.63;1.70;;;;;;;14.46;68.51;101103.97;4989552;28;20233;-68
2022/07/28 05:25:58;;;;;;;5.60;1.50;;;;;;;14.62;68.08;101101.47;4955525;28;20011;-67
2022/07/28 05:28:23;;;;;;;2.83;1.60;;;;;;;14.59;68.75;101107.94;4956266;28;20117;-68
2022/07/28 05:30:49;;;;;;;5.22;1.52;;;;;;;14.75;68.11;101098.44;4950723;28;20026;-68
2022/07/28 05:33:14;;;;;;;4.32;1.70;;;;;;;14.77;67.81;101099.91;4963357;28;20104;-68
2022/07/28 05:35:40;;;;;;;5.65;1.30;;;;;;;14.97;67.12;101099.72;4964999;28;20271;-67
2022/07/28 05:38:05;;;;;;;5.90;2.15;;;;;;;15.11;66.09;101101.78;4952021;28;20469;-67
2022/07/28 05:40:31;;;;;;;1.95;1.85;;;;;;;15.32;64.60;101097.91;4955309;28;20528;-67
2022/07/28 05:42:56;;;;;;;1.92;1.45;;;;;;;15.53;63.51;101107.34;4963337;28;20023;-66
2022/07/28 05:45:22;;;;;;;3.83;1.55;;;;;;;15.66;62.80;101110.41;4946411;28;20367;-67
2022/07/28 05:47:48;;;;;;;3.08;1.50;;;;;;;15.69;61.68;101099.41;4929293;28;21394;-66
2022/07/28 05:50:15;;;;;;;5.82;1.33;;;;;;;15.79;61.95;101100.16;4961706;28;20771;-67
2022/07/28 05:52:40;;;;;;;2.00;1.30;;;;;;;15.84;61.27;101096.16;4969848;28;20068;-67
2022/07/28 05:55:06;;;;;;;2.17;1.40;;;;;;;15.89;61.13;101104.50;4964219;28;20022;-67
2022/07/28 05:57:31;;;;;;;4.90;1.45;;;;;;;16.04;61.01;101099.38;4982739;28;20412;-67
2022/07/28 05:59:57;;;;;;;2.58;1.17;;;;;;;16.06;61.98;101100.88;4941416;28;20006;-67
2022/07/28 06:02:22;;;;;;;1.85;1.30;;;;;;;16.11;61.48;101100.38;4976108;28;20356;-67
2022/07/28 06:04:48;;;;;;;2.00;1.25;;;;;;;16.19;61.36;101105.72;4956484;28;20021;-66
2022/07/28 06:07:13;;;;;;;3.22;1.40;;;;;;;16.27;60.55;101107.56;4969211;28;20006;-68
2022/07/28 06:09:38;;;;;;;3.60;1.40;;;;;;;16.35;60.71;101099.56;4968939;28;20014;-67
2022/07/28 06:12:04;;;;;;;2.20;1.02;;;;;;;16.50;60.04;101107.75;4972399;28;20477;-67
2022/07/28 06:14:30;;;;;;;2.47;1.30;;;;;;;16.53;59.84;101102.06;4982143;28;20064;-64
2022/07/28 06:16:55;;;;;;;2.05;1.20;;;;;;;16.54;58.99;101098.41;4951609;28;20019;-68
2022/07/28 06:19:21;;;;;;;1.95;1.10;;;;;;;16.66;59.10;101106.91;4914531;28;20376;-65
2022/07/28 06:21:46;;;;;;;3.60;0.98;;;;;;;16.83;58.49;101102.38;4930798;28;20030;-67
2022/07/28 06:24:12;;;;;;;2.30;1.10;;;;;;;16.88;59.55;101100.09;4948972;28;20657;-66
2022/07/28 06:26:38;;;;;;;2.00;1.30;;;;;;;16.92;59.19;101097.88;4957902;28;20390;-68
2022/07/28 06:29:04;;;;;;;3.35;1.40;;;;;;;17.10;58.84;101101.19;4959462;28;20160;-68
2022/07/28 06:31:29;;;;;;;1.85;1.15;;;;;;;17.14;58.56;101104.38;4961175;28;20018;-68
2022/07/28 06:33:55;;;;;;;2.15;1.48;;;;;;;17.18;59.53;101103.00;4989835;28;20379;-68
2022/07/28 06:36:20;;;;;;;2.08;1.25;;;;;;;17.25;59.54;101093.28;4950116;28;21680;-68
2022/07/28 06:38:46;;;;;;;1.90;1.23;;;;;;;17.29;58.47;101093.81;4974713;28;20315;-68
2022/07/28 06:41:11;;;;;;;2.88;1.10;;;;;;;17.40;58.72;101092.56;4968243;28;20391;-66
2022/07/28 06:43:37;;;;;;;1.48;1.20;;;;;;;17.39;59.49;101094.44;4971463;28;20732;-66
2022/07/28 06:46:02;;;;;;;1.42;0.98;;;;;;;17.34;58.02;101089.59;4977544;28;20029;-65
2022/07/28 06:48:28;;;;;;;4.72;1.30;;;;;;;17.38;57.79;101111.47;4971647;28;20022;-68
2022/07/28 06:50:55;;;;;;;2.53;1.35;;;;;;;17.47;58.48;101098.88;4986093;28;20540;-65
2022/07/28 06:53:22;;;;;;;4.93;1.20;;;;;;;17.65;57.89;101102.19;4984462;28;20856;-67
2022/07/28 06:55:48;;;;;;;1.33;1.00;;;;;;;17.76;57.09;101092.91;4969999;28;20576;-68
2022/07/28 06:58:13;;;;;;;1.52;1.00;;;;;;;17.94;57.17;101094.53;4975643;28;20863;-68
2022/07/28 07:00:39;;;;;;;1.95;1.00;;;;;;;18.09;55.56;101097.25;4988657;28;20018;-68
2022/07/28 07:03:04;;;;;;;1.48;1.00;;;;;;;18.18;55.55;101091.66;4991088;28;20017;-68
2022/07/28 07:05:30;;;;;;;3.13;1.00;;;;;;;18.28;55.99;101101.34;4967689;28;20314;-68
2022/07/28 07:07:56;;;;;;;2.50;0.90;;;;;;;18.17;55.01;101102.56;4997064;28;20014;-68
2022/07/28 07:10:21;;;;;;;5.95;1.00;;;;;;;18.30;54.60;101102.81;4969170;28;20435;-68
2022/07/28 07:12:47;;;;;;;2.58;1.00;;;;;;;18.25;53.68;101104.38;4990491;28;20346;-68
2022/07/28 07:15:12;;;;;;;1.70;1.00;;;;;;;18.27;54.23;101100.47;4967887;28;20342;-67
2022/07/28 07:17:38;;;;;;;2.30;1.00;;;;;;;18.34;55.58;101108.63;4984252;28;20032;-67
2022/07/28 07:20:07;;;;;;;3.22;1.02;;;;;;;18.29;54.67;101098.47;4981212;28;20034;-66
2022/07/28 07:22:32;;;;;;;0.90;0.90;;;;;;;18.42;53.60;101103.22;4991647;28;20635;-66
2022/07/28 07:25:12;;;;;;;2.83;1.40;;;;;;;18.45;54.49;101100.19;4992673;28;20024;-69
2022/07/28 07:27:38;;;;;;;3.72;1.60;;;;;;;18.50;53.05;101100.47;4991083;28;20045;-66
2022/07/28 07:30:04;;;;;;;3.72;1.10;;;;;;;18.61;53.94;101090.34;4980297;28;20020;-68
2022/07/28 07:32:30;;;;;;;1.50;1.02;;;;;;;18.68;54.59;101093.94;4993135;28;20896;-68
2022/07/28 07:34:55;;;;;;;2.20;1.15;;;;;;;18.72;54.55;101089.88;4971934;28;20053;-65
2022/07/28 07:37:21;;;;;;;1.10;1.00;;;;;;;18.73;53.42;101080.00;4998056;28;20015;-68
2022/07/28 07:39:46;;;;;;;2.15;1.35;;;;;;;18.80;54.03;101084.44;4971754;28;20006;-65
2022/07/28 07:42:12;;;;;;;1.20;1.10;;;;;;;18.71;52.02;101080.16;4974627;28;20895;-67
2022/07/28 07:44:37;;;;;;;5.55;1.20;;;;;;;18.83;52.46;101073.34;4978984;28;20013;-67
2022/07/28 07:47:03;;;;;;;2.45;1.23;;;;;;;18.95;52.31;101075.63;4985533;28;20255;-67
2022/07/28 07:49:28;;;;;;;3.80;1.38;;;;;;;19.05;51.74;101081.56;4955199;28;20186;-67
2022/07/28 07:51:53;;;;;;;2.15;1.50;;;;;;;19.10;51.07;101078.31;4974742;28;20910;-68
2022/07/28 07:54:20;;;;;;;2.45;0.90;;;;;;;19.09;51.90;101074.78;4968634;28;20576;-66
2022/07/28 07:56:46;;;;;;;8.38;1.38;;;;;;;19.17;51.08;101073.88;4982050;28;20021;-67
2022/07/28 07:59:11;;;;;;;1.85;1.08;;;;;;;19.16;52.22;101077.56;4997263;28;20355;-69
2022/07/28 08:01:36;;;;;;;3.92;1.02;;;;;;;19.33;51.79;101080.88;4957605;28;20427;-68
2022/07/28 08:04:02;;;;;;;1.30;0.90;;;;;;;19.34;51.90;101071.81;4981409;28;20362;-68
2022/07/28 08:06:27;;;;;;;3.45;1.00;;;;;;;19.52;52.64;101074.13;4990365;28;20053;-68
2022/07/28 08:08:53;;;;;;;2.00;1.20;;;;;;;19.66;51.43;101075.13;4983938;28;20014;-68
2022/07/28 08:11:19;;;;;;;1.85;1.10;;;;;;;19.75;50.72;101076.66;4996015;28;20482;-66
2022/07/28 08:13:44;;;;;;;1.58;1.00;;;;;;;19.72;51.96;101077.03;4994684;28;20256;-67
2022/07/28 08:16:10;;;;;;;1.38;1.00;;;;;;;19.76;52.10;101072.13;4980225;28;20029;-66
2022/07/28 08:18:35;;;;;;;2.75;1.00;;;;;;;19.87;52.83;101063.59;5008609;28;20499;-68
2022/07/28 08:21:00;;;;;;;4.25;1.30;;;;;;;20.07;53.20;101058.44;5012652;28;20009;-69
2022/07/28 08:23:26;;;;;;;1.65;1.05;;;;;;;20.21;51.87;101070.13;4994718;28;20022;-68
2022/07/28 08:25:51;;;;;;;2.63;1.00;;;;;;;20.27;50.79;101069.34;4988172;28;20013;-67
2022/07/28 08:28:17;;;;;;;1.00;0.90;;;;;;;20.25;49.55;101066.03;4962915;28;19998;-68
2022/07/28 08:30:42;;;;;;;2.08;1.00;;;;;;;20.28;49.50;101065.66;4960586;28;20211;-68
2022/07/28 08:33:08;;;;;;;3.15;1.40;;;;;;;20.21;48.85;101060.22;4966323;28;20107;-68
2022/07/28 08:35:34;;;;;;;1.20;1.00;;;;;;;20.29;49.97;101055.72;4987839;28;20958;-68
2022/07/28 08:37:59;;;;;;;2.17;1.10;;;;;;;20.34;48.11;101053.28;4965451;28;20083;-67
2022/07/28 08:40:25;;;;;;;1.77;1.20;;;;;;;20.55;50.56;101045.19;4970069;28;20442;-69
2022/07/28 08:42:59;;;;;;;3.70;1.10;;;;;;;20.84;51.96;101048.75;4967389;28;20071;-67
2022/07/28 08:45:25;;;;;;;2.13;1.13;;;;;;;20.88;48.82;101047.31;4981841;28;20007;-67
2022/07/28 08:47:50;;;;;;;1.42;1.10;;;;;;;21.03;49.38;101046.34;4972518;28;20117;-68
2022/07/28 08:50:16;;;;;;;1.42;0.95;;;;;;;21.10;48.11;101036.47;4946877;28;20034;-68
2022/07/28 08:52:41;;;;;;;1.23;1.10;;;;;;;21.13;47.40;101046.81;4951742;28;20500;-68
2022/07/28 08:55:07;;;;;;;3.30;1.27;;;;;;;21.36;49.62;101045.69;4949812;28;20019;-67
2022/07/28 08:57:41;;;;;;;2.47;1.20;;;;;;;21.33;46.56;101046.09;4958331;28;20416;-67
2022/07/28 09:00:08;;;;;;;3.10;1.20;;;;;;;21.38;45.99;101046.31;4971703;28;20017;-68
2022/07/28 09:02:36;;;;;;;1.90;0.90;;;;;;;21.34;45.37;101036.97;4967118;28;20022;-65
2022/07/28 09:05:02;;;;;;;1.60;0.90;;;;;;;21.33;45.76;101029.94;4968762;28;20010;-68
2022/07/28 09:07:27;;;;;;;1.33;1.20;;;;;;;21.64;46.73;101034.00;4992340;28;20416;-68
2022/07/28 09:09:53;;;;;;;1.10;1.00;;;;;;;21.90;47.14;101030.50;4956766;28;20017;-65
2022/07/28 09:12:18;;;;;;;1.50;0.93;;;;;;;21.98;45.96;101024.13;4996230;28;20022;-68
2022/07/28 09:14:44;;;;;;;5.10;1.08;;;;;;;22.11;45.76;101038.44;4969034;28;20025;-67
2022/07/28 09:17:09;;;;;;;1.20;0.98;;;;;;;22.21;44.69;101032.63;4993493;28;20463;-68
2022/07/28 09:19:38;;;;;;;1.50;1.20;;;;;;;22.44;42.55;101031.41;4971647;28;20107;-65
2022/07/28 09:22:03;;;;;;;0.88;0.80;;;;;;;22.83;43.72;101023.47;4988299;28;20075;-66
2022/07/28 09:24:32;;;;;;;1.80;1.10;;;;;;;22.94;41.41;101018.25;4967052;28;20022;-67
2022/07/28 09:27:02;;;;;;;5.15;1.63;;;;;;;23.31;43.69;101018.56;4977766;28;20141;-68
2022/07/28 09:29:27;;;;;;;3.28;0.98;;;;;;;23.30;43.64;101016.88;4969271;28;20072;-68
2022/07/28 09:31:52;;;;;;;1.42;1.30;;;;;;;23.66;42.51;101017.31;4961651;28;20476;-69
2022/07/28 09:34:18;;;;;;;2.38;1.17;;;;;;;23.83;40.57;101025.72;4966913;28;20038;-68
2022/07/28 09:36:43;;;;;;;2.45;0.93;;;;;;;23.81;42.13;101025.13;4937506;28;20405;-69
2022/07/28 09:39:09;;;;;;;1.85;1.02;;;;;;;23.89;41.74;101018.66;4930701;28;20063;-69
2022/07/28 09:41:48;;;;;;;2.30;0.98;;;;;;;24.29;41.57;101027.28;4934627;28;20314;-68
2022/07/28 09:44:20;;;;;;;1.00;0.90;;;;;;;24.46;39.93;101021.31;4950754;28;20033;-69
2022/07/28 09:46:45;;;;;;;1.40;1.30;;;;;;;24.75;39.59;101018.97;4964235;28;20940;-68
2022/07/28 09:49:10;;;;;;;2.05;0.93;;;;;;;25.08;37.49;101025.91;4959094;28;20026;-68
2022/07/28 09:51:36;;;;;;;1.45;0.88;;;;;;;25.31;36.50;101023.34;4953657;28;20430;-68
2022/07/28 09:54:16;;;;;;;3.42;1.00;;;;;;;25.28;38.17;101015.66;4945761;28;20449;-68
2022/07/28 09:56:43;;;;;;;2.97;1.00;;;;;;;25.68;35.45;101014.31;4939469;28;20442;-68
2022/07/28 09:59:08;;;;;;;3.75;0.90;;;;;;;25.80;35.60;100998.09;4952333;28;20021;-68
2022/07/28 10:01:54;;;;;;;1.52;0.93;;;;;;;26.01;37.30;101002.97;4951242;28;20045;-67
2022/07/28 10:04:40;;;;;;;2.08;0.82;;;;;;;26.55;35.75;101004.75;4952569;28;20644;-67
2022/07/28 10:07:06;;;;;;;0.82;0.80;;;;;;;26.44;34.61;100998.31;4963191;28;20010;-68
2022/07/28 10:09:31;;;;;;;1.77;0.88;;;;;;;26.50;35.24;101004.66;4970760;28;20337;-67
2022/07/28 10:12:12;;;;;;;1.10;0.90;;;;;;;26.40;36.34;101003.38;4951128;28;20346;-66
2022/07/28 10:14:37;;;;;;;2.50;1.17;;;;;;;26.72;34.71;100997.59;4967018;28;20038;-68
2022/07/28 10:17:04;;;;;;;1.05;0.90;;;;;;;26.16;33.81;100994.41;4968545;28;20033;-69
2022/07/28 10:19:29;;;;;;;1.70;1.10;;;;;;;26.53;35.03;100996.06;4934489;28;20096;-67
2022/07/28 10:21:56;;;;;;;0.90;0.90;;;;;;;26.99;33.18;100988.06;4972261;28;20272;-68
2022/07/28 10:24:21;;;;;;;0.80;0.80;;;;;;;27.34;32.67;100985.25;4938124;28;20129;-67
2022/07/28 10:26:47;;;;;;;2.17;1.00;;;;;;;27.73;33.08;100984.59;4977458;28;20040;-70
2022/07/28 10:29:14;;;;;;;1.55;0.93;;;;;;;27.49;32.73;100983.91;4993385;28;20014;-67
2022/07/28 10:31:45;;;;;;;1.33;1.00;;;;;;;26.93;34.04;100978.19;4964173;28;20079;-66
2022/07/28 10:34:16;;;;;;;2.08;1.00;;;;;;;27.19;35.11;100982.25;4974223;28;20132;-68
2022/07/28 10:36:42;;;;;;;2.28;0.90;;;;;;;27.74;34.84;100973.47;4969241;28;20063;-67
2022/07/28 10:39:12;;;;;;;1.33;0.98;;;;;;;27.49;31.16;100970.31;4973155;28;20360;-68
2022/07/28 10:41:39;;;;;;;0.90;0.90;;;;;;;27.85;33.92;100968.19;4990039;28;20099;-69
2022/07/28 10:44:04;;;;;;;0.80;0.80;;;;;;;28.22;31.56;100962.28;4961347;28;20023;-67
2022/07/28 10:46:30;;;;;;;1.80;0.80;;;;;;;28.68;30.41;100959.38;4963358;28;20139;-68
2022/07/28 10:48:55;;;;;;;1.38;0.90;;;;;;;28.78;30.96;100957.63;4934233;28;20034;-66
2022/07/28 10:51:21;;;;;;;4.22;0.90;;;;;;;28.81;31.49;100953.56;4949963;28;20025;-68
2022/07/28 10:53:52;;;;;;;1.15;0.70;;;;;;;28.46;30.38;100962.91;4939260;28;20961;-69
2022/07/28 10:56:44;;;;;;;1.05;0.85;;;;;;;28.37;30.24;100959.78;4953912;28;21036;-68
2022/07/28 10:59:22;;;;;;;4.00;0.80;;;;;;;29.12;32.14;100956.66;4965891;28;20716;-66
2022/07/28 11:01:48;;;;;;;2.00;0.68;;;;;;;28.81;30.90;100958.19;4977349;28;20260;-67
2022/07/28 11:04:47;;;;;;;0.88;0.63;;;;;;;29.31;29.90;100957.13;4956450;28;20494;-65
2022/07/28 11:07:16;;;;;;;1.58;1.00;;;;;;;29.88;29.14;100949.47;5003971;28;20810;-67
2022/07/28 11:09:42;;;;;;;0.85;0.80;;;;;;;30.31;26.93;100953.84;4983763;28;20014;-67
2022/07/28 11:12:08;;;;;;;1.55;0.63;;;;;;;30.53;26.61;100952.91;4980040;28;20025;-67
2022/07/28 11:14:35;;;;;;;1.13;0.80;;;;;;;30.52;26.61;100945.81;4997446;28;20006;-67
2022/07/28 11:17:00;;;;;;;3.38;1.17;;;;;;;29.95;28.15;100944.59;4991384;28;20460;-67
2022/07/28 11:19:27;;;;;;;1.83;0.90;;;;;;;29.45;29.78;100942.00;4990661;28;20018;-66
2022/07/28 11:22:26;;;;;;;2.65;0.80;;;;;;;30.47;28.87;100934.84;4979337;28;20244;-68
2022/07/28 11:24:59;;;;;;;1.40;0.90;;;;;;;30.97;27.43;100944.34;5015437;28;20016;-68